sensor_id;sensor_type;location;lat;lon;timestamp;P1;durP1;ratioP1;P2;durP2;ratioP2
67997;SDS011;54773;53.388;-1.504;2022-09-09T00:03:56;48.95;;;23.77;;
67997;SDS011;54773;53.388;-1.504;2022-09-09T00:06:30;53.33;;;24.80;;
67997;SDS011;54773;53.388;-1.504;2022-09-09T00:09:17;50.75;;;24.17;;
67997;SDS011;54773;53.388;-1.504;2022-09-09T00:11:52;51.33;;;23.73;;
67997;SDS011;54773;53.388;-1.504;2022-09-09T00:14:41;51.03;;;23.15;;
67997;SDS011;54773;53.388;-1.504;2022-09-09T00:17:17;47.08;;;23.23;;
67997;SDS011;54773;53.388;-1.504;2022-09-09T00:19:46;50.72;;;25.23;;
67997;SDS011;54773;53.388;-1.504;2022-09-09T00:22:19;47.13;;;22.50;;
67997;SDS011;54773;53.388;-1.504;2022-09-09T00:27:56;52.25;;;24.02;;
67997;SDS011;54773;53.388;-1.504;2022-09-09T00:30:23;45.45;;;22.80;;
67997;SDS011;54773;53.388;-1.504;2022-09-09T00:32:55;45.97;;;23.63;;
67997;SDS011;54773;53.388;-1.504;2022-09-09T00:35:29;48.70;;;24.42;;
67997;SDS011;54773;53.388;-1.504;2022-09-09T00:37:58;48.13;;;23.00;;
67997;SDS011;54773;53.388;-1.504;2022-09-09T00:40:39;48.28;;;24.52;;
67997;SDS011;54773;53.388;-1.504;2022-09-09T00:43:23;49.38;;;24.27;;
67997;SDS011;54773;53.388;-1.504;2022-09-09T00:57:30;48.75;;;23.42;;
67997;SDS011;54773;53.388;-1.504;2022-09-09T01:08:53;50.88;;;23.33;;
67997;SDS011;54773;53.388;-1.504;2022-09-09T01:14:49;49.78;;;23.65;;
67997;SDS011;54773;53.388;-1.504;2022-09-09T01:17:19;49.95;;;24.05;;
67997;SDS011;54773;53.388;-1.504;2022-09-09T01:28:10;54.03;;;22.60;;
67997;SDS011;54773;53.388;-1.504;2022-09-09T01:30:40;51.42;;;22.40;;
67997;SDS011;54773;53.388;-1.504;2022-09-09T01:33:07;50.72;;;23.10;;
67997;SDS011;54773;53.388;-1.504;2022-09-09T01:38:22;54.45;;;21.63;;
67997;SDS011;54773;53.388;-1.504;2022-09-09T01:40:49;50.03;;;21.27;;
67997;SDS011;54773;53.388;-1.504;2022-09-09T01:43:19;47.65;;;21.17;;
67997;SDS011;54773;53.388;-1.504;2022-09-09T01:45:46;53.08;;;22.63;;
67997;SDS011;54773;53.388;-1.504;2022-09-09T01:48:14;56.40;;;22.90;;
67997;SDS011;54773;53.388;-1.504;2022-09-09T01:50:40;55.38;;;23.80;;
67997;SDS011;54773;53.388;-1.504;2022-09-09T01:53:06;50.55;;;21.83;;
67997;SDS011;54773;53.388;-1.504;2022-09-09T01:55:32;53.03;;;22.52;;
67997;SDS011;54773;53.388;-1.504;2022-09-09T01:58:10;51.85;;;23.20;;
67997;SDS011;54773;53.388;-1.504;2022-09-09T02:00:41;50.03;;;21.17;;
67997;SDS011;54773;53.388;-1.504;2022-09-09T02:05:40;49.95;;;21.10;;
67997;SDS011;54773;53.388;-1.504;2022-09-09T02:08:52;54.85;;;22.33;;
67997;SDS011;54773;53.388;-1.504;2022-09-09T02:11:06;52.17;;;22.08;;
67997;SDS011;54773;53.388;-1.504;2022-09-09T02:13:38;48.97;;;22.00;;
67997;SDS011;54773;53.388;-1.504;2022-09-09T02:16:07;48.17;;;20.70;;
67997;SDS011;54773;53.388;-1.504;2022-09-09T02:18:51;45.70;;;20.05;;
67997;SDS011;54773;53.388;-1.504;2022-09-09T02:21:42;45.30;;;20.65;;
67997;SDS011;54773;53.388;-1.504;2022-09-09T02:24:09;51.30;;;20.58;;
67997;SDS011;54773;53.388;-1.504;2022-09-09T02:26:37;48.47;;;20.17;;
67997;SDS011;54773;53.388;-1.504;2022-09-09T02:29:09;44.25;;;20.08;;
67997;SDS011;54773;53.388;-1.504;2022-09-09T02:31:38;54.30;;;22.60;;
67997;SDS011;54773;53.388;-1.504;2022-09-09T02:34:05;44.95;;;21.27;;
67997;SDS011;54773;53.388;-1.504;2022-09-09T02:36:35;48.80;;;22.15;;
67997;SDS011;54773;53.388;-1.504;2022-09-09T02:39:05;48.08;;;20.42;;
67997;SDS011;54773;53.388;-1.504;2022-09-09T02:41:34;44.58;;;20.83;;
67997;SDS011;54773;53.388;-1.504;2022-09-09T02:44:01;49.63;;;20.67;;
67997;SDS011;54773;53.388;-1.504;2022-09-09T02:49:24;43.85;;;19.27;;
67997;SDS011;54773;53.388;-1.504;2022-09-09T02:52:08;40.15;;;19.23;;
67997;SDS011;54773;53.388;-1.504;2022-09-09T02:54:45;40.80;;;19.00;;
67997;SDS011;54773;53.388;-1.504;2022-09-09T02:57:19;44.67;;;19.98;;
67997;SDS011;54773;53.388;-1.504;2022-09-09T02:59:48;43.17;;;18.80;;
67997;SDS011;54773;53.388;-1.504;2022-09-09T03:02:15;44.70;;;19.48;;
67997;SDS011;54773;53.388;-1.504;2022-09-09T03:04:40;42.33;;;20.00;;
67997;SDS011;54773;53.388;-1.504;2022-09-09T03:07:09;40.22;;;18.65;;
67997;SDS011;54773;53.388;-1.504;2022-09-09T03:09:35;41.15;;;19.25;;
67997;SDS011;54773;53.388;-1.504;2022-09-09T03:12:00;48.42;;;19.77;;
67997;SDS011;54773;53.388;-1.504;2022-09-09T03:14:26;41.83;;;20.15;;
67997;SDS011;54773;53.388;-1.504;2022-09-09T03:16:52;41.78;;;20.40;;
67997;SDS011;54773;53.388;-1.504;2022-09-09T03:19:19;43.67;;;20.25;;
67997;SDS011;54773;53.388;-1.504;2022-09-09T03:21:45;40.10;;;19.42;;
67997;SDS011;54773;53.388;-1.504;2022-09-09T03:24:11;41.40;;;19.50;;
67997;SDS011;54773;53.388;-1.504;2022-09-09T03:26:38;45.38;;;18.90;;
67997;SDS011;54773;53.388;-1.504;2022-09-09T03:29:06;44.17;;;20.23;;
67997;SDS011;54773;53.388;-1.504;2022-09-09T03:31:33;41.97;;;20.70;;
67997;SDS011;54773;53.388;-1.504;2022-09-09T03:33:59;43.70;;;20.73;;
67997;SDS011;54773;53.388;-1.504;2022-09-09T03:36:25;40.25;;;20.00;;
67997;SDS011;54773;53.388;-1.504;2022-09-09T03:38:52;43.65;;;20.45;;
67997;SDS011;54773;53.388;-1.504;2022-09-09T03:41:25;39.60;;;19.73;;
67997;SDS011;54773;53.388;-1.504;2022-09-09T03:43:52;36.63;;;19.13;;
67997;SDS011;54773;53.388;-1.504;2022-09-09T03:46:19;41.92;;;19.50;;
67997;SDS011;54773;53.388;-1.504;2022-09-09T03:48:46;41.47;;;18.98;;
67997;SDS011;54773;53.388;-1.504;2022-09-09T03:51:15;45.50;;;20.05;;
67997;SDS011;54773;53.388;-1.504;2022-09-09T03:53:42;40.72;;;18.63;;
67997;SDS011;54773;53.388;-1.504;2022-09-09T03:56:14;35.90;;;19.20;;
67997;SDS011;54773;53.388;-1.504;2022-09-09T03:58:45;34.70;;;18.63;;
67997;SDS011;54773;53.388;-1.504;2022-09-09T04:01:12;34.95;;;17.70;;
67997;SDS011;54773;53.388;-1.504;2022-09-09T04:03:43;34.42;;;17.70;;
67997;SDS011;54773;53.388;-1.504;2022-09-09T04:06:10;31.08;;;16.73;;
67997;SDS011;54773;53.388;-1.504;2022-09-09T04:08:39;29.98;;;16.58;;
67997;SDS011;54773;53.388;-1.504;2022-09-09T04:11:05;33.92;;;16.58;;
67997;SDS011;54773;53.388;-1.504;2022-09-09T04:13:32;33.30;;;17.13;;
67997;SDS011;54773;53.388;-1.504;2022-09-09T04:15:59;29.98;;;15.32;;
67997;SDS011;54773;53.388;-1.504;2022-09-09T04:18:26;33.80;;;17.35;;
67997;SDS011;54773;53.388;-1.504;2022-09-09T04:20:53;32.08;;;16.30;;
67997;SDS011;54773;53.388;-1.504;2022-09-09T04:23:21;28.80;;;15.10;;
67997;SDS011;54773;53.388;-1.504;2022-09-09T04:25:47;31.80;;;15.55;;
67997;SDS011;54773;53.388;-1.504;2022-09-09T04:28:14;28.23;;;16.00;;
67997;SDS011;54773;53.388;-1.504;2022-09-09T04:30:40;29.58;;;15.48;;
67997;SDS011;54773;53.388;-1.504;2022-09-09T04:33:07;31.60;;;16.05;;
67997;SDS011;54773;53.388;-1.504;2022-09-09T04:35:33;26.95;;;15.55;;
67997;SDS011;54773;53.388;-1.504;2022-09-09T04:37:59;33.60;;;15.07;;
67997;SDS011;54773;53.388;-1.504;2022-09-09T04:40:29;28.63;;;15.48;;
67997;SDS011;54773;53.388;-1.504;2022-09-09T04:43:02;27.55;;;14.88;;
67997;SDS011;54773;53.388;-1.504;2022-09-09T04:45:31;30.38;;;15.95;;
67997;SDS011;54773;53.388;-1.504;2022-09-09T04:48:00;27.70;;;14.77;;
67997;SDS011;54773;53.388;-1.504;2022-09-09T04:50:25;30.30;;;16.38;;
67997;SDS011;54773;53.388;-1.504;2022-09-09T04:52:54;32.58;;;15.48;;
67997;SDS011;54773;53.388;-1.504;2022-09-09T04:55:20;32.75;;;16.27;;
67997;SDS011;54773;53.388;-1.504;2022-09-09T04:57:48;27.25;;;15.18;;
67997;SDS011;54773;53.388;-1.504;2022-09-09T05:00:14;29.13;;;15.73;;
67997;SDS011;54773;53.388;-1.504;2022-09-09T05:02:43;28.65;;;16.83;;
67997;SDS011;54773;53.388;-1.504;2022-09-09T05:05:15;27.70;;;15.85;;
67997;SDS011;54773;53.388;-1.504;2022-09-09T05:07:44;28.75;;;15.75;;
67997;SDS011;54773;53.388;-1.504;2022-09-09T05:10:11;32.05;;;17.23;;
67997;SDS011;54773;53.388;-1.504;2022-09-09T05:12:41;30.73;;;15.90;;
67997;SDS011;54773;53.388;-1.504;2022-09-09T05:15:08;34.17;;;16.73;;
67997;SDS011;54773;53.388;-1.504;2022-09-09T05:17:37;30.77;;;17.25;;
67997;SDS011;54773;53.388;-1.504;2022-09-09T05:20:02;32.00;;;15.93;;
67997;SDS011;54773;53.388;-1.504;2022-09-09T05:22:31;31.55;;;17.15;;
67997;SDS011;54773;53.388;-1.504;2022-09-09T05:24:56;34.03;;;17.90;;
67997;SDS011;54773;53.388;-1.504;2022-09-09T05:27:23;28.83;;;15.75;;
67997;SDS011;54773;53.388;-1.504;2022-09-09T05:29:48;29.92;;;17.58;;
67997;SDS011;54773;53.388;-1.504;2022-09-09T05:32:14;31.13;;;16.80;;
67997;SDS011;54773;53.388;-1.504;2022-09-09T05:34:43;30.23;;;16.42;;
67997;SDS011;54773;53.388;-1.504;2022-09-09T05:37:08;32.30;;;16.08;;
67997;SDS011;54773;53.388;-1.504;2022-09-09T05:39:34;31.27;;;15.32;;
67997;SDS011;54773;53.388;-1.504;2022-09-09T05:42:01;34.30;;;16.77;;
67997;SDS011;54773;53.388;-1.504;2022-09-09T05:44:29;33.05;;;16.63;;
67997;SDS011;54773;53.388;-1.504;2022-09-09T05:46:57;32.85;;;15.82;;
67997;SDS011;54773;53.388;-1.504;2022-09-09T05:49:23;36.38;;;17.17;;
67997;SDS011;54773;53.388;-1.504;2022-09-09T05:51:49;33.75;;;16.38;;
67997;SDS011;54773;53.388;-1.504;2022-09-09T05:54:15;31.88;;;16.85;;
67997;SDS011;54773;53.388;-1.504;2022-09-09T05:56:41;35.53;;;17.67;;
67997;SDS011;54773;53.388;-1.504;2022-09-09T05:59:07;34.75;;;16.15;;
67997;SDS011;54773;53.388;-1.504;2022-09-09T06:01:34;39.30;;;19.02;;
67997;SDS011;54773;53.388;-1.504;2022-09-09T06:04:00;37.13;;;17.73;;
67997;SDS011;54773;53.388;-1.504;2022-09-09T06:06:26;36.20;;;17.05;;
67997;SDS011;54773;53.388;-1.504;2022-09-09T06:08:56;37.13;;;18.33;;
67997;SDS011;54773;53.388;-1.504;2022-09-09T06:11:25;36.20;;;17.63;;
67997;SDS011;54773;53.388;-1.504;2022-09-09T06:13:52;33.90;;;17.80;;
67997;SDS011;54773;53.388;-1.504;2022-09-09T06:16:20;35.70;;;17.42;;
67997;SDS011;54773;53.388;-1.504;2022-09-09T06:18:48;34.90;;;16.95;;
67997;SDS011;54773;53.388;-1.504;2022-09-09T06:23:42;34.40;;;17.92;;
67997;SDS011;54773;53.388;-1.504;2022-09-09T06:26:31;37.45;;;18.45;;
67997;SDS011;54773;53.388;-1.504;2022-09-09T06:28:58;35.08;;;19.15;;
67997;SDS011;54773;53.388;-1.504;2022-09-09T06:31:25;37.63;;;17.98;;
67997;SDS011;54773;53.388;-1.504;2022-09-09T06:33:52;37.40;;;18.58;;
67997;SDS011;54773;53.388;-1.504;2022-09-09T06:38:47;34.45;;;19.13;;
67997;SDS011;54773;53.388;-1.504;2022-09-09T06:41:13;39.00;;;19.73;;
67997;SDS011;54773;53.388;-1.504;2022-09-09T06:43:42;39.22;;;19.33;;
67997;SDS011;54773;53.388;-1.504;2022-09-09T06:48:39;35.80;;;19.27;;
67997;SDS011;54773;53.388;-1.504;2022-09-09T06:53:38;38.15;;;19.13;;
67997;SDS011;54773;53.388;-1.504;2022-09-09T06:58:36;40.83;;;17.88;;
67997;SDS011;54773;53.388;-1.504;2022-09-09T07:01:05;38.85;;;18.05;;
67997;SDS011;54773;53.388;-1.504;2022-09-09T07:03:31;39.22;;;18.50;;
67997;SDS011;54773;53.388;-1.504;2022-09-09T07:06:01;41.70;;;18.73;;
67997;SDS011;54773;53.388;-1.504;2022-09-09T07:08:27;35.38;;;18.02;;
67997;SDS011;54773;53.388;-1.504;2022-09-09T07:10:53;35.20;;;18.65;;
67997;SDS011;54773;53.388;-1.504;2022-09-09T07:13:41;37.20;;;17.50;;
67997;SDS011;54773;53.388;-1.504;2022-09-09T07:16:12;39.67;;;18.95;;
67997;SDS011;54773;53.388;-1.504;2022-09-09T07:18:43;40.97;;;18.33;;
67997;SDS011;54773;53.388;-1.504;2022-09-09T07:21:09;38.13;;;18.20;;
67997;SDS011;54773;53.388;-1.504;2022-09-09T07:23:38;37.95;;;18.20;;
67997;SDS011;54773;53.388;-1.504;2022-09-09T07:26:10;38.90;;;18.02;;
67997;SDS011;54773;53.388;-1.504;2022-09-09T07:28:37;38.83;;;18.17;;
67997;SDS011;54773;53.388;-1.504;2022-09-09T07:31:03;36.78;;;18.08;;
67997;SDS011;54773;53.388;-1.504;2022-09-09T07:33:30;35.97;;;17.80;;
67997;SDS011;54773;53.388;-1.504;2022-09-09T07:36:06;35.80;;;18.15;;
67997;SDS011;54773;53.388;-1.504;2022-09-09T07:38:42;33.70;;;17.30;;
67997;SDS011;54773;53.388;-1.504;2022-09-09T07:41:16;35.30;;;18.17;;
67997;SDS011;54773;53.388;-1.504;2022-09-09T07:43:48;37.03;;;17.45;;
67997;SDS011;54773;53.388;-1.504;2022-09-09T07:46:19;35.67;;;18.55;;
67997;SDS011;54773;53.388;-1.504;2022-09-09T07:48:46;37.67;;;17.90;;
67997;SDS011;54773;53.388;-1.504;2022-09-09T07:51:26;36.15;;;17.65;;
67997;SDS011;54773;53.388;-1.504;2022-09-09T07:53:57;33.00;;;17.63;;
67997;SDS011;54773;53.388;-1.504;2022-09-09T07:56:24;37.53;;;16.65;;
67997;SDS011;54773;53.388;-1.504;2022-09-09T07:58:52;31.38;;;15.77;;
67997;SDS011;54773;53.388;-1.504;2022-09-09T08:01:40;29.30;;;16.00;;
67997;SDS011;54773;53.388;-1.504;2022-09-09T08:04:06;33.53;;;16.80;;
67997;SDS011;54773;53.388;-1.504;2022-09-09T08:06:42;29.08;;;15.43;;
67997;SDS011;54773;53.388;-1.504;2022-09-09T08:09:11;28.83;;;14.93;;
67997;SDS011;54773;53.388;-1.504;2022-09-09T08:11:37;28.92;;;15.35;;
67997;SDS011;54773;53.388;-1.504;2022-09-09T08:14:03;22.70;;;14.18;;
67997;SDS011;54773;53.388;-1.504;2022-09-09T08:16:30;24.73;;;13.65;;
67997;SDS011;54773;53.388;-1.504;2022-09-09T08:18:57;23.50;;;12.18;;
67997;SDS011;54773;53.388;-1.504;2022-09-09T08:21:24;21.52;;;12.50;;
67997;SDS011;54773;53.388;-1.504;2022-09-09T08:23:54;19.88;;;12.43;;
67997;SDS011;54773;53.388;-1.504;2022-09-09T08:26:25;23.23;;;11.80;;
67997;SDS011;54773;53.388;-1.504;2022-09-09T08:28:54;20.90;;;10.93;;
67997;SDS011;54773;53.388;-1.504;2022-09-09T08:31:22;22.27;;;10.95;;
67997;SDS011;54773;53.388;-1.504;2022-09-09T08:33:56;19.90;;;11.23;;
67997;SDS011;54773;53.388;-1.504;2022-09-09T08:36:25;21.92;;;12.13;;
67997;SDS011;54773;53.388;-1.504;2022-09-09T08:38:53;19.02;;;11.48;;
67997;SDS011;54773;53.388;-1.504;2022-09-09T08:58:21;20.85;;;11.18;;
67997;SDS011;54773;53.388;-1.504;2022-09-09T09:09:22;19.80;;;8.55;;
67997;SDS011;54773;53.388;-1.504;2022-09-09T09:11:53;12.73;;;6.47;;
67997;SDS011;54773;53.388;-1.504;2022-09-09T09:14:21;11.23;;;5.72;;
67997;SDS011;54773;53.388;-1.504;2022-09-09T09:16:52;13.13;;;7.00;;
67997;SDS011;54773;53.388;-1.504;2022-09-09T09:19:19;17.67;;;6.80;;
67997;SDS011;54773;53.388;-1.504;2022-09-09T09:22:13;10.60;;;5.70;;
67997;SDS011;54773;53.388;-1.504;2022-09-09T09:24:55;12.57;;;5.05;;
67997;SDS011;54773;53.388;-1.504;2022-09-09T09:29:50;16.48;;;5.72;;
67997;SDS011;54773;53.388;-1.504;2022-09-09T09:32:21;10.07;;;5.68;;
67997;SDS011;54773;53.388;-1.504;2022-09-09T09:34:57;9.90;;;5.07;;
67997;SDS011;54773;53.388;-1.504;2022-09-09T09:37:29;8.10;;;3.97;;
67997;SDS011;54773;53.388;-1.504;2022-09-09T09:40:07;12.90;;;4.03;;
67997;SDS011;54773;53.388;-1.504;2022-09-09T09:42:37;7.30;;;3.30;;
67997;SDS011;54773;53.388;-1.504;2022-09-09T09:45:08;11.25;;;4.13;;
67997;SDS011;54773;53.388;-1.504;2022-09-09T09:48:12;8.50;;;3.40;;
67997;SDS011;54773;53.388;-1.504;2022-09-09T09:50:57;6.75;;;3.40;;
67997;SDS011;54773;53.388;-1.504;2022-09-09T09:53:32;8.30;;;3.85;;
67997;SDS011;54773;53.388;-1.504;2022-09-09T09:56:03;8.35;;;3.50;;
67997;SDS011;54773;53.388;-1.504;2022-09-09T09:58:32;7.88;;;3.80;;
67997;SDS011;54773;53.388;-1.504;2022-09-09T10:00:59;8.77;;;4.20;;
67997;SDS011;54773;53.388;-1.504;2022-09-09T10:03:27;9.30;;;4.28;;
67997;SDS011;54773;53.388;-1.504;2022-09-09T10:05:57;8.20;;;3.53;;
67997;SDS011;54773;53.388;-1.504;2022-09-09T10:08:26;7.80;;;3.53;;
67997;SDS011;54773;53.388;-1.504;2022-09-09T10:21:25;7.00;;;3.28;;
67997;SDS011;54773;53.388;-1.504;2022-09-09T10:26:35;6.72;;;3.42;;
67997;SDS011;54773;53.388;-1.504;2022-09-09T10:31:34;6.50;;;3.15;;
67997;SDS011;54773;53.388;-1.504;2022-09-09T10:36:47;11.27;;;3.28;;
67997;SDS011;54773;53.388;-1.504;2022-09-09T10:42:13;8.05;;;2.97;;
67997;SDS011;54773;53.388;-1.504;2022-09-09T10:55:23;6.15;;;2.47;;
67997;SDS011;54773;53.388;-1.504;2022-09-09T10:57:53;5.50;;;2.85;;
67997;SDS011;54773;53.388;-1.504;2022-09-09T11:00:20;7.47;;;3.25;;
67997;SDS011;54773;53.388;-1.504;2022-09-09T11:02:49;10.18;;;3.03;;
67997;SDS011;54773;53.388;-1.504;2022-09-09T11:05:20;5.45;;;2.20;;
67997;SDS011;54773;53.388;-1.504;2022-09-09T11:08:01;7.70;;;2.60;;
67997;SDS011;54773;53.388;-1.504;2022-09-09T11:10:46;7.38;;;2.53;;
67997;SDS011;54773;53.388;-1.504;2022-09-09T11:18:53;5.35;;;1.92;;
67997;SDS011;54773;53.388;-1.504;2022-09-09T11:21:24;6.40;;;3.13;;
67997;SDS011;54773;53.388;-1.504;2022-09-09T11:23:54;7.63;;;2.63;;
67997;SDS011;54773;53.388;-1.504;2022-09-09T11:26:27;6.20;;;2.40;;
67997;SDS011;54773;53.388;-1.504;2022-09-09T11:42:45;5.95;;;1.23;;
67997;SDS011;54773;53.388;-1.504;2022-09-09T11:45:22;4.43;;;1.17;;
67997;SDS011;54773;53.388;-1.504;2022-09-09T11:47:54;5.40;;;1.15;;
67997;SDS011;54773;53.388;-1.504;2022-09-09T11:52:47;3.78;;;1.10;;
67997;SDS011;54773;53.388;-1.504;2022-09-09T11:55:27;6.35;;;1.50;;
67997;SDS011;54773;53.388;-1.504;2022-09-09T11:58:06;5.82;;;1.70;;
67997;SDS011;54773;53.388;-1.504;2022-09-09T12:00:45;4.28;;;2.00;;
67997;SDS011;54773;53.388;-1.504;2022-09-09T12:06:09;9.88;;;2.90;;
67997;SDS011;54773;53.388;-1.504;2022-09-09T12:08:58;4.50;;;2.78;;
67997;SDS011;54773;53.388;-1.504;2022-09-09T12:11:33;7.18;;;3.20;;
67997;SDS011;54773;53.388;-1.504;2022-09-09T12:13:59;9.25;;;3.38;;
67997;SDS011;54773;53.388;-1.504;2022-09-09T12:16:35;5.25;;;2.78;;
67997;SDS011;54773;53.388;-1.504;2022-09-09T12:21:58;8.77;;;2.50;;
67997;SDS011;54773;53.388;-1.504;2022-09-09T12:24:31;7.38;;;2.75;;
67997;SDS011;54773;53.388;-1.504;2022-09-09T12:29:41;7.45;;;2.60;;
67997;SDS011;54773;53.388;-1.504;2022-09-09T12:32:11;11.45;;;2.90;;
67997;SDS011;54773;53.388;-1.504;2022-09-09T12:34:44;11.73;;;2.72;;
67997;SDS011;54773;53.388;-1.504;2022-09-09T12:37:29;6.82;;;2.05;;
67997;SDS011;54773;53.388;-1.504;2022-09-09T12:40:06;7.57;;;1.27;;
67997;SDS011;54773;53.388;-1.504;2022-09-09T12:42:45;4.68;;;1.30;;
67997;SDS011;54773;53.388;-1.504;2022-09-09T12:45:23;4.70;;;1.15;;
67997;SDS011;54773;53.388;-1.504;2022-09-09T12:48:02;5.13;;;1.58;;
67997;SDS011;54773;53.388;-1.504;2022-09-09T12:50:35;3.72;;;1.33;;
67997;SDS011;54773;53.388;-1.504;2022-09-09T12:53:07;5.65;;;1.33;;
67997;SDS011;54773;53.388;-1.504;2022-09-09T12:55:36;6.13;;;1.92;;
67997;SDS011;54773;53.388;-1.504;2022-09-09T12:58:03;6.45;;;2.13;;
67997;SDS011;54773;53.388;-1.504;2022-09-09T13:00:32;8.68;;;2.00;;
67997;SDS011;54773;53.388;-1.504;2022-09-09T13:02:59;6.82;;;2.28;;
67997;SDS011;54773;53.388;-1.504;2022-09-09T13:05:27;5.10;;;2.08;;
67997;SDS011;54773;53.388;-1.504;2022-09-09T13:08:09;6.15;;;2.08;;
67997;SDS011;54773;53.388;-1.504;2022-09-09T13:10:36;4.70;;;1.27;;
67997;SDS011;54773;53.388;-1.504;2022-09-09T13:13:12;4.38;;;1.10;;
67997;SDS011;54773;53.388;-1.504;2022-09-09T13:18:06;3.22;;;1.20;;
67997;SDS011;54773;53.388;-1.504;2022-09-09T13:20:36;7.30;;;1.10;;
67997;SDS011;54773;53.388;-1.504;2022-09-09T13:23:02;5.05;;;1.30;;
67997;SDS011;54773;53.388;-1.504;2022-09-09T13:25:28;3.63;;;1.02;;
67997;SDS011;54773;53.388;-1.504;2022-09-09T13:28:01;7.60;;;1.25;;
67997;SDS011;54773;53.388;-1.504;2022-09-09T13:32:59;2.97;;;1.17;;
67997;SDS011;54773;53.388;-1.504;2022-09-09T13:35:55;3.53;;;1.40;;
67997;SDS011;54773;53.388;-1.504;2022-09-09T13:38:22;3.92;;;1.52;;
67997;SDS011;54773;53.388;-1.504;2022-09-09T13:41:08;4.70;;;1.45;;
67997;SDS011;54773;53.388;-1.504;2022-09-09T13:43:36;11.63;;;1.73;;
67997;SDS011;54773;53.388;-1.504;2022-09-09T13:46:22;6.68;;;1.85;;
67997;SDS011;54773;53.388;-1.504;2022-09-09T13:49:00;6.40;;;1.70;;
67997;SDS011;54773;53.388;-1.504;2022-09-09T13:51:38;7.72;;;1.50;;
67997;SDS011;54773;53.388;-1.504;2022-09-09T13:54:06;15.02;;;1.95;;
67997;SDS011;54773;53.388;-1.504;2022-09-09T13:56:34;7.07;;;1.58;;
67997;SDS011;54773;53.388;-1.504;2022-09-09T13:59:02;14.77;;;2.10;;
67997;SDS011;54773;53.388;-1.504;2022-09-09T14:01:29;5.35;;;1.33;;
67997;SDS011;54773;53.388;-1.504;2022-09-09T14:03:55;5.35;;;1.63;;
67997;SDS011;54773;53.388;-1.504;2022-09-09T14:06:21;3.45;;;1.30;;
67997;SDS011;54773;53.388;-1.504;2022-09-09T14:08:49;3.53;;;1.60;;
67997;SDS011;54773;53.388;-1.504;2022-09-09T14:11:16;5.68;;;1.40;;
67997;SDS011;54773;53.388;-1.504;2022-09-09T14:13:42;5.78;;;1.40;;
67997;SDS011;54773;53.388;-1.504;2022-09-09T14:16:11;3.58;;;1.30;;
67997;SDS011;54773;53.388;-1.504;2022-09-09T14:18:37;5.22;;;1.55;;
67997;SDS011;54773;53.388;-1.504;2022-09-09T14:21:04;9.43;;;1.60;;
67997;SDS011;54773;53.388;-1.504;2022-09-09T14:23:30;5.25;;;1.92;;
67997;SDS011;54773;53.388;-1.504;2022-09-09T14:25:55;3.65;;;1.00;;
67997;SDS011;54773;53.388;-1.504;2022-09-09T14:28:24;1.95;;;0.90;;
67997;SDS011;54773;53.388;-1.504;2022-09-09T14:30:50;4.43;;;1.10;;
67997;SDS011;54773;53.388;-1.504;2022-09-09T14:33:19;4.43;;;0.90;;
67997;SDS011;54773;53.388;-1.504;2022-09-09T14:35:44;3.17;;;0.82;;
67997;SDS011;54773;53.388;-1.504;2022-09-09T14:38:10;3.92;;;0.85;;
67997;SDS011;54773;53.388;-1.504;2022-09-09T14:40:36;2.45;;;0.70;;
67997;SDS011;54773;53.388;-1.504;2022-09-09T14:43:03;6.07;;;1.27;;
67997;SDS011;54773;53.388;-1.504;2022-09-09T14:45:29;2.65;;;0.80;;
67997;SDS011;54773;53.388;-1.504;2022-09-09T14:47:56;4.53;;;0.88;;
67997;SDS011;54773;53.388;-1.504;2022-09-09T14:50:22;2.45;;;0.95;;
67997;SDS011;54773;53.388;-1.504;2022-09-09T14:52:49;2.33;;;0.80;;
67997;SDS011;54773;53.388;-1.504;2022-09-09T14:55:18;2.45;;;0.60;;
67997;SDS011;54773;53.388;-1.504;2022-09-09T14:57:44;2.35;;;0.80;;
67997;SDS011;54773;53.388;-1.504;2022-09-09T15:00:10;2.95;;;0.80;;
67997;SDS011;54773;53.388;-1.504;2022-09-09T15:02:38;3.58;;;0.88;;
67997;SDS011;54773;53.388;-1.504;2022-09-09T15:05:06;1.85;;;0.73;;
67997;SDS011;54773;53.388;-1.504;2022-09-09T15:07:33;2.28;;;0.57;;
67997;SDS011;54773;53.388;-1.504;2022-09-09T15:09:59;3.47;;;0.80;;
67997;SDS011;54773;53.388;-1.504;2022-09-09T15:12:24;1.45;;;0.50;;
67997;SDS011;54773;53.388;-1.504;2022-09-09T15:14:50;2.60;;;0.75;;
67997;SDS011;54773;53.388;-1.504;2022-09-09T15:17:16;2.92;;;0.80;;
67997;SDS011;54773;53.388;-1.504;2022-09-09T15:19:41;1.40;;;0.50;;
67997;SDS011;54773;53.388;-1.504;2022-09-09T15:22:07;1.08;;;0.40;;
67997;SDS011;54773;53.388;-1.504;2022-09-09T15:24:36;2.05;;;0.60;;
67997;SDS011;54773;53.388;-1.504;2022-09-09T15:27:05;4.25;;;0.70;;
67997;SDS011;54773;53.388;-1.504;2022-09-09T15:29:31;2.13;;;0.80;;
67997;SDS011;54773;53.388;-1.504;2022-09-09T15:31:56;2.78;;;0.60;;
67997;SDS011;54773;53.388;-1.504;2022-09-09T15:34:22;3.67;;;0.60;;
67997;SDS011;54773;53.388;-1.504;2022-09-09T15:36:48;2.30;;;0.60;;
67997;SDS011;54773;53.388;-1.504;2022-09-09T15:39:14;3.08;;;0.80;;
67997;SDS011;54773;53.388;-1.504;2022-09-09T15:41:44;2.72;;;0.60;;
67997;SDS011;54773;53.388;-1.504;2022-09-09T15:44:10;1.58;;;0.55;;
67997;SDS011;54773;53.388;-1.504;2022-09-09T15:46:49;1.35;;;0.50;;
67997;SDS011;54773;53.388;-1.504;2022-09-09T15:49:23;2.65;;;0.70;;
67997;SDS011;54773;53.388;-1.504;2022-09-09T15:51:59;3.45;;;0.70;;
67997;SDS011;54773;53.388;-1.504;2022-09-09T15:54:33;2.20;;;0.65;;
67997;SDS011;54773;53.388;-1.504;2022-09-09T15:57:01;2.53;;;0.60;;
67997;SDS011;54773;53.388;-1.504;2022-09-09T15:59:29;2.65;;;0.70;;
67997;SDS011;54773;53.388;-1.504;2022-09-09T16:01:59;3.08;;;0.90;;
67997;SDS011;54773;53.388;-1.504;2022-09-09T16:04:35;2.40;;;0.70;;
67997;SDS011;54773;53.388;-1.504;2022-09-09T16:07:02;1.85;;;0.60;;
67997;SDS011;54773;53.388;-1.504;2022-09-09T16:09:28;3.65;;;0.90;;
67997;SDS011;54773;53.388;-1.504;2022-09-09T16:11:55;4.97;;;0.95;;
67997;SDS011;54773;53.388;-1.504;2022-09-09T16:14:23;2.13;;;0.70;;
67997;SDS011;54773;53.388;-1.504;2022-09-09T16:16:49;3.58;;;0.77;;
67997;SDS011;54773;53.388;-1.504;2022-09-09T16:19:15;3.38;;;0.80;;
67997;SDS011;54773;53.388;-1.504;2022-09-09T16:21:45;1.40;;;0.50;;
67997;SDS011;54773;53.388;-1.504;2022-09-09T16:24:14;4.55;;;0.90;;
67997;SDS011;54773;53.388;-1.504;2022-09-09T16:26:42;2.92;;;1.08;;
67997;SDS011;54773;53.388;-1.504;2022-09-09T16:29:10;3.60;;;1.00;;
67997;SDS011;54773;53.388;-1.504;2022-09-09T16:31:36;2.30;;;0.90;;
67997;SDS011;54773;53.388;-1.504;2022-09-09T16:34:02;2.92;;;1.00;;
67997;SDS011;54773;53.388;-1.504;2022-09-09T16:36:29;3.80;;;1.00;;
67997;SDS011;54773;53.388;-1.504;2022-09-09T16:39:00;2.35;;;0.90;;
67997;SDS011;54773;53.388;-1.504;2022-09-09T16:41:27;2.90;;;0.90;;
67997;SDS011;54773;53.388;-1.504;2022-09-09T16:43:54;3.03;;;0.80;;
67997;SDS011;54773;53.388;-1.504;2022-09-09T16:46:21;3.63;;;1.38;;
67997;SDS011;54773;53.388;-1.504;2022-09-09T16:48:47;3.03;;;1.00;;
67997;SDS011;54773;53.388;-1.504;2022-09-09T16:51:24;3.50;;;1.10;;
67997;SDS011;54773;53.388;-1.504;2022-09-09T16:53:51;2.70;;;1.00;;
67997;SDS011;54773;53.388;-1.504;2022-09-09T16:56:19;4.35;;;1.10;;
67997;SDS011;54773;53.388;-1.504;2022-09-09T16:58:53;3.20;;;1.00;;
67997;SDS011;54773;53.388;-1.504;2022-09-09T17:01:21;3.72;;;0.80;;
67997;SDS011;54773;53.388;-1.504;2022-09-09T17:04:03;2.45;;;0.70;;
67997;SDS011;54773;53.388;-1.504;2022-09-09T17:06:31;3.33;;;0.80;;
67997;SDS011;54773;53.388;-1.504;2022-09-09T17:09:03;2.97;;;0.68;;
67997;SDS011;54773;53.388;-1.504;2022-09-09T17:11:32;3.65;;;0.80;;